Time;durP1;ratioP1;P1;durP2;ratioP2;P2;SDS_P1;SDS_P2;PMS_P1;PMS_P2;Temp;Humidity;BMP_temperature;BMP_pressure;BME280_temperature;BME280_humidity;BME280_pressure;Samples;Min_cycle;Max_cycle;Signal;HPM_P1;HPM_P2
2020/01/18 00:00:51;;;;;;;15;12.45;;;;;;;6.9;75.33887;95641.03;;;;
2020/01/18 00:01:51;;;;;;;15;12.45;;;;;;;6.9;75.33887;95641.03;;;;
2020/01/18 00:02:52;;;;;;;15;12.45;;;;;;;6.9;75.33887;95641.03;;;;
2020/01/18 00:03:52;;;;;;;15;12.45;;;;;;;6.9;75.33887;95641.03;;;;
2020/01/18 00:04:53;;;;;;;15;12.45;;;;;;;6.9;75.33887;95641.03;;;;
2020/01/18 00:05:53;;;;;;;14.6;11.7;;;;;;;6.75;74.6123;95651.95;;;;
2020/01/18 00:06:54;;;;;;;14.6;11.7;;;;;;;6.75;74.6123;95651.95;;;;
2020/01/18 00:07:54;;;;;;;13.4;12;;;;;;;6.78;75.55078;95654.75;;;;
2020/01/18 00:08:54;;;;;;;13.4;12;;;;;;;6.78;75.55078;95654.75;;;;
2020/01/18 00:09:55;;;;;;;13.4;12;;;;;;;6.78;75.55078;95654.75;;;;
2020/01/18 00:10:55;;;;;;;13.1;11.7;;;;;;;6.85;76.10254;95666.74;;;;
2020/01/18 00:11:56;;;;;;;13.1;11.7;;;;;;;6.85;76.10254;95666.74;;;;
2020/01/18 00:12:56;;;;;;;12.4;11.1;;;;;;;6.91;76.66602;95669.94;;;;
2020/01/18 00:13:57;;;;;;;12.4;11.1;;;;;;;6.91;76.66602;95669.94;;;;
2020/01/18 00:14:58;;;;;;;12.4;11.1;;;;;;;6.91;76.66602;95669.94;;;;
2020/01/18 00:15:58;;;;;;;12.4;11.1;;;;;;;6.91;76.66602;95669.94;;;;
2020/01/18 00:16:59;;;;;;;12.4;11.1;;;;;;;6.91;76.66602;95669.94;;;;
2020/01/18 00:18:01;;;;;;;12.4;11.1;;;;;;;6.91;76.66602;95669.94;;;;
2020/01/18 00:19:02;;;;;;;12.4;11.1;;;;;;;6.91;76.66602;95669.94;;;;
2020/01/18 00:20:02;;;;;;;12.4;11.1;;;;;;;6.91;76.66602;95669.94;;;;
2020/01/18 00:21:03;;;;;;;12.4;11.1;;;;;;;6.91;76.66602;95669.94;;;;
2020/01/18 00:22:03;;;;;;;12.4;11.1;;;;;;;6.91;76.66602;95669.94;;;;
2020/01/18 00:23:04;;;;;;;12.4;11.1;;;;;;;6.91;76.66602;95669.94;;;;
2020/01/18 00:24:04;;;;;;;11.4;10.05;;;;;;;6.77;75.66602;95673.21;;;;
2020/01/18 00:25:05;;;;;;;11.4;10.05;;;;;;;6.77;75.66602;95673.21;;;;
2020/01/18 00:26:05;;;;;;;11.9;10.7;;;;;;;6.79;76.37891;95679.21;;;;
2020/01/18 00:27:06;;;;;;;11.9;10.7;;;;;;;6.79;76.37891;95679.21;;;;
2020/01/18 00:28:07;;;;;;;11.9;10.7;;;;;;;6.79;76.37891;95679.21;;;;
2020/01/18 00:29:11;;;;;;;11.9;10.7;;;;;;;6.79;76.37891;95679.21;;;;
2020/01/18 00:30:12;;;;;;;11.9;10.7;;;;;;;6.79;76.37891;95679.21;;;;
2020/01/18 00:31:12;;;;;;;11.9;10.7;;;;;;;6.79;76.37891;95679.21;;;;
2020/01/18 00:32:13;;;;;;;11.9;10.7;;;;;;;6.79;76.37891;95679.21;;;;
2020/01/18 00:33:13;;;;;;;11.9;10.7;;;;;;;6.79;76.37891;95679.21;;;;
2020/01/18 00:34:14;;;;;;;11.9;10.7;;;;;;;6.79;76.37891;95679.21;;;;
2020/01/18 00:35:14;;;;;;;11.9;10.7;;;;;;;6.79;76.37891;95679.21;;;;
2020/01/18 00:36:17;;;;;;;11.9;10.7;;;;;;;6.79;76.37891;95679.21;;;;
2020/01/18 00:37:17;;;;;;;10.5;9.400002;;;;;;;6.67;75.5625;95678.56;;;;
2020/01/18 00:38:17;;;;;;;10.5;9.400002;;;;;;;6.67;75.5625;95678.56;;;;
2020/01/18 00:39:18;;;;;;;10.6;9.5;;;;;;;6.7;76.41602;95678.66;;;;
2020/01/18 00:40:19;;;;;;;10.6;9.5;;;;;;;6.7;76.41602;95678.66;;;;
2020/01/18 00:41:20;;;;;;;10.6;9.5;;;;;;;6.7;76.41602;95678.66;;;;
2020/01/18 00:42:20;;;;;;;10.6;9.5;;;;;;;6.7;76.41602;95678.66;;;;
2020/01/18 00:43:21;;;;;;;10.6;9.5;;;;;;;6.7;76.41602;95678.66;;;;
2020/01/18 00:44:21;;;;;;;10.6;9.5;;;;;;;6.7;76.41602;95678.66;;;;
2020/01/18 00:45:22;;;;;;;10.6;9.5;;;;;;;6.7;76.41602;95678.66;;;;
2020/01/18 00:46:22;;;;;;;10.6;9.5;;;;;;;6.7;76.41602;95678.66;;;;
2020/01/18 00:47:23;;;;;;;10.6;9.5;;;;;;;6.7;76.41602;95678.66;;;;
2020/01/18 00:48:23;;;;;;;10.6;9.5;;;;;;;6.7;76.41602;95678.66;;;;
2020/01/18 00:49:24;;;;;;;10.6;9.5;;;;;;;6.7;76.41602;95678.66;;;;
2020/01/18 00:50:24;;;;;;;8.1;7.200001;;;;;;;6.6;75.7207;95683.47;;;;
2020/01/18 00:51:24;;;;;;;8.1;7.200001;;;;;;;6.6;75.7207;95683.47;;;;
2020/01/18 00:52:25;;;;;;;8.1;7.200001;;;;;;;6.6;75.7207;95683.47;;;;
2020/01/18 00:53:52;;;;;;;7.949999;7;;;;;;;6.63;76.56445;95685.77;;;;
2020/01/18 00:54:53;;;;;;;7.949999;7;;;;;;;6.63;76.56445;95685.77;;;;
2020/01/18 00:56:11;;;;;;;7.949999;7;;;;;;;6.63;76.56445;95685.77;;;;
2020/01/18 00:57:26;;;;;;;7.949999;7;;;;;;;6.63;76.56445;95685.77;;;;
2020/01/18 01:03:40;;;;;;;5.25;4.75;;;;;;;6.48;76.55762;95707.89;;;;
2020/01/18 01:04:48;;;;;;;5.25;4.75;;;;;;;6.48;76.55762;95707.89;;;;
2020/01/18 01:05:49;;;;;;;5.25;4.75;;;;;;;6.48;77.39453;95709.74;;;;
2020/01/18 01:06:51;;;;;;;5.25;4.75;;;;;;;6.48;77.39453;95709.74;;;;
2020/01/18 01:07:54;;;;;;;5.25;4.75;;;;;;;6.48;77.39453;95709.74;;;;
2020/01/18 01:08:55;;;;;;;4.75;4.35;;;;;;;6.53;77.99512;95713.06;;;;
2020/01/18 01:09:55;;;;;;;4.75;4.35;;;;;;;6.53;77.99512;95713.06;;;;
2020/01/18 01:10:56;;;;;;;4.75;4.35;;;;;;;6.53;77.99512;95713.06;;;;
2020/01/18 01:11:56;;;;;;;5;4.5;;;;;;;6.57;78.77539;95721.53;;;;
2020/01/18 01:12:57;;;;;;;5;4.5;;;;;;;6.57;78.77539;95721.53;;;;
2020/01/18 01:13:58;;;;;;;5;4.5;;;;;;;6.57;78.77539;95721.53;;;;
2020/01/18 01:14:58;;;;;;;5;4.5;;;;;;;6.57;78.77539;95721.53;;;;
2020/01/18 01:15:58;;;;;;;5;4.5;;;;;;;6.57;78.77539;95721.53;;;;
2020/01/18 01:16:59;;;;;;;5;4.5;;;;;;;6.57;78.77539;95721.53;;;;
2020/01/18 01:17:59;;;;;;;5;4.5;;;;;;;6.57;78.77539;95721.53;;;;
2020/01/18 01:19:00;;;;;;;5;4.5;;;;;;;6.57;78.77539;95721.53;;;;
2020/01/18 01:20:00;;;;;;;5;4.5;;;;;;;6.57;78.77539;95721.53;;;;
2020/01/18 01:21:01;;;;;;;5;4.5;;;;;;;6.57;78.77539;95721.53;;;;
2020/01/18 01:22:01;;;;;;;4.35;3.85;;;;;;;6.22;78.20605;95721.19;;;;
2020/01/18 01:23:04;;;;;;;4.35;3.85;;;;;;;6.22;78.20605;95721.19;;;;
2020/01/18 01:24:05;;;;;;;4.35;3.85;;;;;;;6.22;78.20605;95721.19;;;;
2020/01/18 01:25:05;;;;;;;5.150001;4.650001;;;;;;;6.2;79.15234;95735.82;;;;
2020/01/18 01:26:08;;;;;;;5.150001;4.650001;;;;;;;6.2;79.15234;95735.82;;;;
2020/01/18 01:27:08;;;;;;;5.150001;4.650001;;;;;;;6.2;79.15234;95735.82;;;;
2020/01/18 01:28:09;;;;;;;5.150001;4.650001;;;;;;;6.2;79.15234;95735.82;;;;
2020/01/18 01:29:09;;;;;;;5.150001;4.650001;;;;;;;6.2;79.15234;95735.82;;;;
2020/01/18 01:30:10;;;;;;;5.150001;4.650001;;;;;;;6.2;79.15234;95735.82;;;;
2020/01/18 01:32:15;;;;;;;5.150001;4.650001;;;;;;;6.2;79.15234;95735.82;;;;
2020/01/18 01:33:15;;;;;;;5.150001;4.650001;;;;;;;6.2;79.15234;95735.82;;;;
2020/01/18 01:34:16;;;;;;;5.150001;4.650001;;;;;;;6.2;79.15234;95735.82;;;;
2020/01/18 01:35:17;;;;;;;4.7;4.05;;;;;;;5.93;79.43066;95748.74;;;;
2020/01/18 01:36:17;;;;;;;4.7;4.05;;;;;;;5.93;79.43066;95748.74;;;;
2020/01/18 01:37:17;;;;;;;4.7;4.05;;;;;;;5.93;79.43066;95748.74;;;;
2020/01/18 01:38:18;;;;;;;4.2;3.65;;;;;;;5.92;80.48535;95739.43;;;;
2020/01/18 01:39:18;;;;;;;4.2;3.65;;;;;;;5.92;80.48535;95739.43;;;;
2020/01/18 01:40:19;;;;;;;4.2;3.65;;;;;;;5.92;80.48535;95739.43;;;;
2020/01/18 01:41:19;;;;;;;4.2;3.65;;;;;;;5.92;80.48535;95739.43;;;;
2020/01/18 01:42:20;;;;;;;4.2;3.65;;;;;;;5.92;80.48535;95739.43;;;;
2020/01/18 01:43:20;;;;;;;4.2;3.65;;;;;;;5.92;80.48535;95739.43;;;;
2020/01/18 01:44:21;;;;;;;4.2;3.65;;;;;;;5.92;80.48535;95739.43;;;;
2020/01/18 01:45:21;;;;;;;4.2;3.65;;;;;;;5.92;80.48535;95739.43;;;;
2020/01/18 01:46:22;;;;;;;4.2;3.65;;;;;;;5.92;80.48535;95739.43;;;;
2020/01/18 01:47:22;;;;;;;4.2;3.65;;;;;;;5.92;80.48535;95739.43;;;;
2020/01/18 01:48:23;;;;;;;4.25;3.4;;;;;;;5.7;80.45605;95747.62;;;;
2020/01/18 01:49:23;;;;;;;4.25;3.4;;;;;;;5.7;80.45605;95747.62;;;;
2020/01/18 01:50:23;;;;;;;4.25;3.4;;;;;;;5.7;80.45605;95747.62;;;;
2020/01/18 01:51:24;;;;;;;3.8;3.35;;;;;;;5.71;81.99902;95751.51;;;;
2020/01/18 01:52:24;;;;;;;3.8;3.35;;;;;;;5.71;81.99902;95751.51;;;;
2020/01/18 01:53:25;;;;;;;3.8;3.35;;;;;;;5.71;81.99902;95751.51;;;;
2020/01/18 01:54:25;;;;;;;3.8;3.35;;;;;;;5.71;81.99902;95751.51;;;;
2020/01/18 01:55:26;;;;;;;3.8;3.35;;;;;;;5.71;81.99902;95751.51;;;;
2020/01/18 01:56:26;;;;;;;3.8;3.35;;;;;;;5.71;81.99902;95751.51;;;;
2020/01/18 01:57:27;;;;;;;3.8;3.35;;;;;;;5.71;81.99902;95751.51;;;;
2020/01/18 01:58:27;;;;;;;3.8;3.35;;;;;;;5.71;81.99902;95751.51;;;;
2020/01/18 01:59:28;;;;;;;3.8;3.35;;;;;;;5.71;81.99902;95751.51;;;;
2020/01/18 02:00:28;;;;;;;3.8;3.35;;;;;;;5.71;81.99902;95751.51;;;;
2020/01/18 02:01:29;;;;;;;4.050001;3.45;;;;;;;5.53;81.34277;95755.19;;;;
2020/01/18 02:02:30;;;;;;;4.050001;3.45;;;;;;;5.53;81.34277;95755.19;;;;
2020/01/18 02:03:30;;;;;;;4.050001;3.45;;;;;;;5.53;81.34277;95755.19;;;;
2020/01/18 02:04:30;;;;;;;5.2;4.100001;;;;;;;5.54;82.3252;95755.94;;;;
2020/01/18 02:05:31;;;;;;;5.2;4.100001;;;;;;;5.54;82.3252;95755.94;;;;
2020/01/18 02:06:31;;;;;;;5.2;4.100001;;;;;;;5.54;82.3252;95755.94;;;;
2020/01/18 02:07:32;;;;;;;5.2;4.100001;;;;;;;5.54;82.3252;95755.94;;;;
2020/01/18 02:08:32;;;;;;;5.2;4.100001;;;;;;;5.54;82.3252;95755.94;;;;
2020/01/18 02:09:32;;;;;;;5.2;4.100001;;;;;;;5.54;82.3252;95755.94;;;;
2020/01/18 02:10:33;;;;;;;5.2;4.100001;;;;;;;5.54;82.3252;95755.94;;;;
2020/01/18 02:11:33;;;;;;;5.2;4.100001;;;;;;;5.54;82.3252;95755.94;;;;
2020/01/18 02:12:34;;;;;;;5.2;4.100001;;;;;;;5.54;82.3252;95755.94;;;;
2020/01/18 02:13:34;;;;;;;5.2;4.100001;;;;;;;5.54;82.3252;95755.94;;;;
2020/01/18 02:14:35;;;;;;;4.85;3.55;;;;;;;5.39;81.98047;95766.72;;;;
2020/01/18 02:15:35;;;;;;;4.85;3.55;;;;;;;5.39;81.98047;95766.72;;;;
2020/01/18 02:16:35;;;;;;;4.85;3.55;;;;;;;5.39;81.98047;95766.72;;;;
2020/01/18 02:17:36;;;;;;;6.25;3.7;;;;;;;5.42;83.0293;95773.11;;;;
2020/01/18 02:18:36;;;;;;;6.25;3.7;;;;;;;5.42;83.0293;95773.11;;;;
2020/01/18 02:19:37;;;;;;;6.25;3.7;;;;;;;5.42;83.0293;95773.11;;;;
2020/01/18 02:20:37;;;;;;;6.25;3.7;;;;;;;5.42;83.0293;95773.11;;;;
2020/01/18 02:21:38;;;;;;;6.25;3.7;;;;;;;5.42;83.0293;95773.11;;;;
2020/01/18 02:22:38;;;;;;;6.25;3.7;;;;;;;5.42;83.0293;95773.11;;;;
2020/01/18 02:23:38;;;;;;;6.25;3.7;;;;;;;5.42;83.0293;95773.11;;;;
2020/01/18 02:24:39;;;;;;;6.25;3.7;;;;;;;5.42;83.0293;95773.11;;;;
2020/01/18 02:25:39;;;;;;;6.25;3.7;;;;;;;5.42;83.0293;95773.11;;;;
2020/01/18 02:26:40;;;;;;;6.25;3.7;;;;;;;5.42;83.0293;95773.11;;;;
2020/01/18 02:27:40;;;;;;;6.25;3.7;;;;;;;5.42;83.0293;95773.11;;;;
2020/01/18 02:28:41;;;;;;;6.05;4;;;;;;;5.31;82.48242;95787.84;;;;
2020/01/18 02:29:41;;;;;;;6.05;4;;;;;;;5.31;82.48242;95787.84;;;;
2020/01/18 02:30:41;;;;;;;5.6;3.8;;;;;;;5.34;83.52344;95790.55;;;;
2020/01/18 02:31:42;;;;;;;5.6;3.8;;;;;;;5.34;83.52344;95790.55;;;;
2020/01/18 02:32:42;;;;;;;5.6;3.8;;;;;;;5.34;83.52344;95790.55;;;;
2020/01/18 02:33:43;;;;;;;5.6;3.8;;;;;;;5.34;83.52344;95790.55;;;;
2020/01/18 02:34:43;;;;;;;5.6;3.8;;;;;;;5.34;83.52344;95790.55;;;;
2020/01/18 02:35:44;;;;;;;5.6;3.8;;;;;;;5.34;83.52344;95790.55;;;;
2020/01/18 02:36:44;;;;;;;5.6;3.8;;;;;;;5.34;83.52344;95790.55;;;;
2020/01/18 02:37:45;;;;;;;5.6;3.8;;;;;;;5.34;83.52344;95790.55;;;;
2020/01/18 02:38:45;;;;;;;5.6;3.8;;;;;;;5.34;83.52344;95790.55;;;;
2020/01/18 02:39:46;;;;;;;5.6;3.8;;;;;;;5.34;83.52344;95790.55;;;;
2020/01/18 02:40:46;;;;;;;5.6;3.8;;;;;;;5.34;83.52344;95790.55;;;;
2020/01/18 02:41:47;;;;;;;4.75;3.55;;;;;;;5.27;83.24512;95806.13;;;;
2020/01/18 02:42:47;;;;;;;4.75;3.55;;;;;;;5.27;83.24512;95806.13;;;;
2020/01/18 02:43:47;;;;;;;5.550001;4.35;;;;;;;5.3;84.04102;95810.3;;;;
2020/01/18 02:44:48;;;;;;;5.550001;4.35;;;;;;;5.3;84.04102;95810.3;;;;
2020/01/18 02:45:48;;;;;;;5.550001;4.35;;;;;;;5.3;84.04102;95810.3;;;;
2020/01/18 02:46:49;;;;;;;5.550001;4.35;;;;;;;5.3;84.04102;95810.3;;;;
2020/01/18 02:47:49;;;;;;;5.550001;4.35;;;;;;;5.3;84.04102;95810.3;;;;
2020/01/18 02:48:50;;;;;;;5.550001;4.35;;;;;;;5.3;84.04102;95810.3;;;;
2020/01/18 02:49:50;;;;;;;5.550001;4.35;;;;;;;5.3;84.04102;95810.3;;;;
2020/01/18 02:50:50;;;;;;;5.550001;4.35;;;;;;;5.3;84.04102;95810.3;;;;
2020/01/18 02:51:51;;;;;;;5.550001;4.35;;;;;;;5.3;84.04102;95810.3;;;;
2020/01/18 02:52:51;;;;;;;5.550001;4.35;;;;;;;5.3;84.04102;95810.3;;;;
2020/01/18 02:53:52;;;;;;;5.550001;4.35;;;;;;;5.3;84.04102;95810.3;;;;
2020/01/18 02:54:52;;;;;;;5.949999;4.2;;;;;;;5.2;83.93848;95810.17;;;;
2020/01/18 02:55:53;;;;;;;5.949999;4.2;;;;;;;5.2;83.93848;95810.17;;;;
2020/01/18 02:56:53;;;;;;;5.499999;4.05;;;;;;;5.22;84.92188;95816.6;;;;
2020/01/18 02:57:53;;;;;;;5.499999;4.05;;;;;;;5.22;84.92188;95816.6;;;;
2020/01/18 02:58:54;;;;;;;5.499999;4.05;;;;;;;5.22;84.92188;95816.6;;;;
2020/01/18 02:59:54;;;;;;;5.499999;4.05;;;;;;;5.22;84.92188;95816.6;;;;
2020/01/18 03:00:55;;;;;;;5.499999;4.05;;;;;;;5.22;84.92188;95816.6;;;;
2020/01/18 03:01:55;;;;;;;5.499999;4.05;;;;;;;5.22;84.92188;95816.6;;;;
2020/01/18 03:02:56;;;;;;;5.499999;4.05;;;;;;;5.22;84.92188;95816.6;;;;
2020/01/18 03:03:56;;;;;;;5.499999;4.05;;;;;;;5.22;84.92188;95816.6;;;;
2020/01/18 03:04:56;;;;;;;5.499999;4.05;;;;;;;5.22;84.92188;95816.6;;;;
2020/01/18 03:05:57;;;;;;;5.499999;4.05;;;;;;;5.22;84.92188;95816.6;;;;
2020/01/18 03:06:57;;;;;;;5.499999;4.05;;;;;;;5.22;84.92188;95816.6;;;;
2020/01/18 03:07:58;;;;;;;6.35;4;;;;;;;5.14;84.32617;95814.54;;;;
2020/01/18 03:08:58;;;;;;;6.35;4;;;;;;;5.14;84.32617;95814.54;;;;
2020/01/18 03:09:59;;;;;;;6.35;4;;;;;;;5.14;84.32617;95814.54;;;;
2020/01/18 03:10:59;;;;;;;5.65;4.149999;;;;;;;5.17;85.32324;95816.33;;;;
2020/01/18 03:12:00;;;;;;;5.65;4.149999;;;;;;;5.17;85.32324;95816.33;;;;
2020/01/18 03:13:01;;;;;;;5.65;4.149999;;;;;;;5.17;85.32324;95816.33;;;;
2020/01/18 03:14:29;;;;;;;5.65;4.149999;;;;;;;5.17;85.32324;95816.33;;;;
2020/01/18 03:17:31;;;;;;;5.65;4.149999;;;;;;;5.17;85.32324;95816.33;;;;
2020/01/18 03:23:47;;;;;;;9.65;4.7;;;;;;;5.09;85.20117;95819.65;;;;
2020/01/18 03:24:49;;;;;;;9.65;4.7;;;;;;;5.09;85.20117;95819.65;;;;
2020/01/18 03:25:49;;;;;;;9.65;4.7;;;;;;;5.09;85.20117;95819.65;;;;
2020/01/18 03:26:50;;;;;;;9.65;4.7;;;;;;;5.09;85.20117;95819.65;;;;
2020/01/18 03:27:50;;;;;;;9.65;4.7;;;;;;;5.09;85.20117;95819.65;;;;
2020/01/18 03:28:51;;;;;;;9.65;4.7;;;;;;;5.09;85.20117;95819.65;;;;
2020/01/18 03:29:51;;;;;;;9.65;4.7;;;;;;;5.09;85.20117;95819.65;;;;
2020/01/18 03:30:52;;;;;;;9.65;4.7;;;;;;;5.09;85.20117;95819.65;;;;
2020/01/18 03:31:52;;;;;;;8.350001;4.7;;;;;;;5.05;84.85547;95839.34;;;;
2020/01/18 03:32:52;;;;;;;8.350001;4.7;;;;;;;5.05;84.85547;95839.34;;;;
2020/01/18 03:33:53;;;;;;;8.350001;4.7;;;;;;;5.05;84.85547;95839.34;;;;
2020/01/18 03:34:53;;;;;;;8.350001;4.7;;;;;;;5.05;84.85547;95839.34;;;;
2020/01/18 03:35:54;;;;;;;8.350001;4.7;;;;;;;5.05;84.85547;95839.34;;;;
2020/01/18 03:36:54;;;;;;;8.350001;4.7;;;;;;;5.05;84.85547;95839.34;;;;
2020/01/18 03:37:55;;;;;;;8.350001;4.7;;;;;;;5.05;84.85547;95839.34;;;;
2020/01/18 03:38:55;;;;;;;8.350001;4.7;;;;;;;5.05;84.85547;95839.34;;;;
2020/01/18 03:39:55;;;;;;;8.350001;4.7;;;;;;;5.05;84.85547;95839.34;;;;
2020/01/18 03:40:56;;;;;;;8.350001;4.7;;;;;;;5.05;84.85547;95839.34;;;;
2020/01/18 03:41:56;;;;;;;6.65;4.950001;;;;;;;4.97;85.20703;95852.83;;;;
2020/01/18 03:42:57;;;;;;;6.65;4.950001;;;;;;;4.97;85.20703;95852.83;;;;
2020/01/18 03:43:57;;;;;;;6.65;4.950001;;;;;;;4.97;85.20703;95852.83;;;;
2020/01/18 03:44:58;;;;;;;6.65;4.950001;;;;;;;4.97;85.20703;95852.83;;;;
2020/01/18 03:45:59;;;;;;;6.65;4.950001;;;;;;;4.97;85.20703;95852.83;;;;
2020/01/18 03:46:59;;;;;;;6.65;4.950001;;;;;;;4.97;85.20703;95852.83;;;;
2020/01/18 03:48:00;;;;;;;6.65;4.950001;;;;;;;4.97;85.20703;95852.83;;;;
2020/01/18 03:49:00;;;;;;;6.65;4.950001;;;;;;;4.97;85.20703;95852.83;;;;
2020/01/18 03:50:02;;;;;;;6.65;4.950001;;;;;;;4.97;85.20703;95852.83;;;;
2020/01/18 03:51:02;;;;;;;6.65;4.950001;;;;;;;4.97;85.20703;95852.83;;;;
2020/01/18 03:52:04;;;;;;;6.65;4.950001;;;;;;;4.97;85.20703;95852.83;;;;
2020/01/18 03:53:05;;;;;;;9.4;5.65;;;;;;;4.99;85.0752;95865.93;;;;
2020/01/18 03:54:05;;;;;;;9.4;5.65;;;;;;;4.99;85.0752;95865.93;;;;
2020/01/18 03:55:06;;;;;;;9.4;5.65;;;;;;;4.99;85.0752;95865.93;;;;
2020/01/18 03:56:06;;;;;;;9.4;5.65;;;;;;;4.99;85.0752;95865.93;;;;
2020/01/18 03:57:07;;;;;;;9.4;5.65;;;;;;;4.99;85.0752;95865.93;;;;
2020/01/18 03:58:07;;;;;;;9.4;5.65;;;;;;;4.99;85.0752;95865.93;;;;
2020/01/18 03:59:08;;;;;;;9.4;5.65;;;;;;;4.99;85.0752;95865.93;;;;
2020/01/18 04:00:08;;;;;;;9.4;5.65;;;;;;;4.99;85.0752;95865.93;;;;
2020/01/18 04:01:11;;;;;;;9.4;5.65;;;;;;;4.99;85.0752;95865.93;;;;
2020/01/18 04:02:11;;;;;;;9.4;5.65;;;;;;;4.99;85.0752;95865.93;;;;
2020/01/18 04:03:12;;;;;;;7.7;5.500001;;;;;;;4.85;86.01563;95886.35;;;;
2020/01/18 04:04:12;;;;;;;7.7;5.500001;;;;;;;4.85;86.01563;95886.35;;;;
2020/01/18 04:05:13;;;;;;;7.7;5.500001;;;;;;;4.85;86.01563;95886.35;;;;
2020/01/18 04:06:13;;;;;;;7.7;5.500001;;;;;;;4.85;86.01563;95886.35;;;;
2020/01/18 04:07:14;;;;;;;7.7;5.500001;;;;;;;4.85;86.01563;95886.35;;;;
2020/01/18 04:08:14;;;;;;;7.7;5.500001;;;;;;;4.85;86.01563;95886.35;;;;
2020/01/18 04:09:14;;;;;;;7.7;5.500001;;;;;;;4.85;86.01563;95886.35;;;;
2020/01/18 04:10:15;;;;;;;7.7;5.500001;;;;;;;4.85;86.01563;95886.35;;;;
2020/01/18 04:11:15;;;;;;;7.7;5.500001;;;;;;;4.85;86.01563;95886.35;;;;
2020/01/18 04:12:16;;;;;;;7.7;5.500001;;;;;;;4.85;86.01563;95886.35;;;;
2020/01/18 04:13:19;;;;;;;7.7;5.500001;;;;;;;4.85;86.01563;95886.35;;;;
2020/01/18 04:14:21;;;;;;;6.05;4.450001;;;;;;;4.76;86.83008;95902.59;;;;
2020/01/18 04:15:21;;;;;;;6.05;4.450001;;;;;;;4.76;86.83008;95902.59;;;;
2020/01/18 04:16:22;;;;;;;6.05;4.450001;;;;;;;4.76;86.83008;95902.59;;;;
2020/01/18 04:17:22;;;;;;;6.05;4.450001;;;;;;;4.76;86.83008;95902.59;;;;
2020/01/18 04:18:23;;;;;;;6.05;4.450001;;;;;;;4.76;86.83008;95902.59;;;;
2020/01/18 04:19:23;;;;;;;6.05;4.450001;;;;;;;4.76;86.83008;95902.59;;;;
2020/01/18 04:20:24;;;;;;;6.05;4.450001;;;;;;;4.76;86.83008;95902.59;;;;
2020/01/18 04:21:24;;;;;;;6.05;4.450001;;;;;;;4.76;86.83008;95902.59;;;;
2020/01/18 04:22:25;;;;;;;6.05;4.450001;;;;;;;4.76;86.83008;95902.59;;;;
2020/01/18 04:23:25;;;;;;;6.05;4.450001;;;;;;;4.76;86.83008;95902.59;;;;
2020/01/18 04:24:26;;;;;;;6.349999;3.7;;;;;;;4.6;86.73438;95906.8;;;;
2020/01/18 04:25:26;;;;;;;6.349999;3.7;;;;;;;4.6;86.73438;95906.8;;;;
2020/01/18 04:26:27;;;;;;;6.349999;3.7;;;;;;;4.6;86.73438;95906.8;;;;
2020/01/18 04:27:27;;;;;;;6.349999;3.7;;;;;;;4.6;86.73438;95906.8;;;;
2020/01/18 04:28:27;;;;;;;6.349999;3.7;;;;;;;4.6;86.73438;95906.8;;;;
2020/01/18 04:29:28;;;;;;;6.349999;3.7;;;;;;;4.6;86.73438;95906.8;;;;
2020/01/18 04:30:29;;;;;;;6.349999;3.7;;;;;;;4.6;86.73438;95906.8;;;;
2020/01/18 04:31:30;;;;;;;6.349999;3.7;;;;;;;4.6;86.73438;95906.8;;;;
2020/01/18 04:32:30;;;;;;;6.349999;3.7;;;;;;;4.6;86.73438;95906.8;;;;
2020/01/18 04:33:30;;;;;;;6.349999;3.7;;;;;;;4.6;86.73438;95906.8;;;;
2020/01/18 04:34:33;;;;;;;6.349999;3.7;;;;;;;4.6;86.73438;95906.8;;;;
2020/01/18 04:35:34;;;;;;;4.7;3.4;;;;;;;4.47;86.69531;95924.05;;;;
2020/01/18 04:36:38;;;;;;;4.7;3.4;;;;;;;4.47;86.69531;95924.05;;;;
2020/01/18 04:37:40;;;;;;;4.7;3.4;;;;;;;4.47;86.69531;95924.05;;;;
2020/01/18 04:38:46;;;;;;;4.7;3.4;;;;;;;4.47;86.69531;95924.05;;;;
2020/01/18 04:39:49;;;;;;;4.7;3.4;;;;;;;4.47;86.69531;95924.05;;;;
2020/01/18 04:40:50;;;;;;;4.7;3.4;;;;;;;4.47;86.69531;95924.05;;;;
2020/01/18 04:41:50;;;;;;;4.7;3.4;;;;;;;4.47;86.69531;95924.05;;;;
2020/01/18 04:42:51;;;;;;;4.7;3.4;;;;;;;4.47;86.69531;95924.05;;;;
2020/01/18 04:43:51;;;;;;;4.7;3.4;;;;;;;4.47;86.69531;95924.05;;;;
2020/01/18 04:44:52;;;;;;;4.7;3.4;;;;;;;4.47;86.69531;95924.05;;;;
2020/01/18 04:45:52;;;;;;;6.45;3.9;;;;;;;4.3;86.58984;95926.58;;;;
2020/01/18 04:46:53;;;;;;;6.45;3.9;;;;;;;4.3;86.58984;95926.58;;;;
2020/01/18 04:47:53;;;;;;;6.45;3.9;;;;;;;4.3;86.58984;95926.58;;;;
2020/01/18 04:48:53;;;;;;;6.45;3.9;;;;;;;4.3;86.58984;95926.58;;;;
2020/01/18 04:49:54;;;;;;;6.45;3.9;;;;;;;4.3;86.58984;95926.58;;;;
2020/01/18 04:50:54;;;;;;;6.45;3.9;;;;;;;4.3;86.58984;95926.58;;;;
2020/01/18 04:51:55;;;;;;;6.45;3.9;;;;;;;4.3;86.58984;95926.58;;;;
2020/01/18 04:52:55;;;;;;;6.45;3.9;;;;;;;4.3;86.58984;95926.58;;;;
2020/01/18 04:53:56;;;;;;;6.45;3.9;;;;;;;4.3;86.58984;95926.58;;;;
2020/01/18 04:54:56;;;;;;;6.45;3.9;;;;;;;4.3;86.58984;95926.58;;;;
2020/01/18 04:55:57;;;;;;;6.45;3.9;;;;;;;4.3;86.58984;95926.58;;;;
2020/01/18 04:56:57;;;;;;;7.249999;4.15;;;;;;;4.23;86.54297;95930.46;;;;
2020/01/18 04:57:58;;;;;;;7.249999;4.15;;;;;;;4.23;86.54297;95930.46;;;;
2020/01/18 04:58:58;;;;;;;7.249999;4.15;;;;;;;4.23;86.54297;95930.46;;;;
2020/01/18 04:59:58;;;;;;;7.249999;4.15;;;;;;;4.23;86.54297;95930.46;;;;
2020/01/18 05:00:59;;;;;;;7.249999;4.15;;;;;;;4.23;86.54297;95930.46;;;;
2020/01/18 05:02:01;;;;;;;7.249999;4.15;;;;;;;4.23;86.54297;95930.46;;;;
2020/01/18 05:03:02;;;;;;;7.249999;4.15;;;;;;;4.23;86.54297;95930.46;;;;
2020/01/18 05:04:02;;;;;;;7.249999;4.15;;;;;;;4.23;86.54297;95930.46;;;;
2020/01/18 05:05:03;;;;;;;7.249999;4.15;;;;;;;4.23;86.54297;95930.46;;;;
2020/01/18 05:06:03;;;;;;;7.249999;4.15;;;;;;;4.23;86.54297;95930.46;;;;
2020/01/18 05:07:03;;;;;;;5.050001;3.35;;;;;;;4.1;86.4248;95927.98;;;;
2020/01/18 05:08:04;;;;;;;5.050001;3.35;;;;;;;4.1;86.4248;95927.98;;;;
2020/01/18 05:09:04;;;;;;;5.050001;3.35;;;;;;;4.1;86.4248;95927.98;;;;
2020/01/18 05:10:05;;;;;;;5.050001;3.35;;;;;;;4.1;86.4248;95927.98;;;;
2020/01/18 05:11:05;;;;;;;5.050001;3.35;;;;;;;4.1;86.4248;95927.98;;;;
2020/01/18 05:12:06;;;;;;;5.050001;3.35;;;;;;;4.1;86.4248;95927.98;;;;
2020/01/18 05:13:06;;;;;;;5.050001;3.35;;;;;;;4.1;86.4248;95927.98;;;;
2020/01/18 05:14:07;;;;;;;5.050001;3.35;;;;;;;4.1;86.4248;95927.98;;;;
2020/01/18 05:15:14;;;;;;;5.050001;3.35;;;;;;;4.1;86.4248;95927.98;;;;
2020/01/18 05:16:23;;;;;;;5.050001;3.35;;;;;;;4.1;86.4248;95927.98;;;;
2020/01/18 05:17:23;;;;;;;5.65;3.3;;;;;;;3.99;86.2334;95950.73;;;;
2020/01/18 05:18:35;;;;;;;5.65;3.3;;;;;;;3.99;86.2334;95950.73;;;;
2020/01/18 05:19:37;;;;;;;5.65;3.3;;;;;;;3.99;86.2334;95950.73;;;;
2020/01/18 05:20:58;;;;;;;5.65;3.3;;;;;;;3.99;86.2334;95950.73;;;;
2020/01/18 05:22:38;;;;;;;5.65;3.3;;;;;;;3.99;86.2334;95950.73;;;;
2020/01/18 05:27:27;;;;;;;5.65;3.3;;;;;;;3.99;86.2334;95950.73;;;;
2020/01/18 05:28:27;;;;;;;7.050001;3.45;;;;;;;3.82;86.51465;95961.61;;;;
2020/01/18 05:29:28;;;;;;;7.050001;3.45;;;;;;;3.82;86.51465;95961.61;;;;
2020/01/18 05:30:28;;;;;;;7.050001;3.45;;;;;;;3.82;86.51465;95961.61;;;;
2020/01/18 05:31:29;;;;;;;7.050001;3.45;;;;;;;3.82;86.51465;95961.61;;;;
2020/01/18 05:32:29;;;;;;;7.050001;3.45;;;;;;;3.82;86.51465;95961.61;;;;
2020/01/18 05:33:29;;;;;;;7.050001;3.45;;;;;;;3.82;86.51465;95961.61;;;;
2020/01/18 05:34:30;;;;;;;7.050001;3.45;;;;;;;3.82;86.51465;95961.61;;;;
2020/01/18 05:35:30;;;;;;;7.050001;3.45;;;;;;;3.82;86.51465;95961.61;;;;
2020/01/18 05:36:31;;;;;;;7.050001;3.45;;;;;;;3.82;86.51465;95961.61;;;;
2020/01/18 05:37:31;;;;;;;7.050001;3.45;;;;;;;3.82;86.51465;95961.61;;;;
2020/01/18 05:38:32;;;;;;;5.2;3.25;;;;;;;3.77;86.49512;95973.35;;;;
2020/01/18 05:39:32;;;;;;;5.2;3.25;;;;;;;3.77;86.49512;95973.35;;;;
2020/01/18 05:40:32;;;;;;;5.2;3.25;;;;;;;3.77;86.49512;95973.35;;;;
2020/01/18 05:41:33;;;;;;;5.2;3.25;;;;;;;3.77;86.49512;95973.35;;;;
2020/01/18 05:42:33;;;;;;;5.2;3.25;;;;;;;3.77;86.49512;95973.35;;;;
2020/01/18 05:43:34;;;;;;;5.2;3.25;;;;;;;3.77;86.49512;95973.35;;;;
2020/01/18 05:44:34;;;;;;;5.2;3.25;;;;;;;3.77;86.49512;95973.35;;;;
2020/01/18 05:45:35;;;;;;;5.2;3.25;;;;;;;3.77;86.49512;95973.35;;;;
2020/01/18 05:46:35;;;;;;;5.2;3.25;;;;;;;3.77;86.49512;95973.35;;;;
2020/01/18 05:47:35;;;;;;;5.2;3.25;;;;;;;3.77;86.49512;95973.35;;;;
2020/01/18 05:48:36;;;;;;;5.2;3.25;;;;;;;3.77;86.49512;95973.35;;;;
2020/01/18 05:49:36;;;;;;;3.35;2.75;;;;;;;3.47;86.69434;95980.46;;;;
2020/01/18 05:50:37;;;;;;;3.35;2.75;;;;;;;3.47;86.69434;95980.46;;;;
2020/01/18 05:51:37;;;;;;;3.35;2.75;;;;;;;3.47;86.69434;95980.46;;;;
2020/01/18 05:52:38;;;;;;;3.35;2.75;;;;;;;3.47;86.69434;95980.46;;;;
2020/01/18 05:53:38;;;;;;;3.35;2.75;;;;;;;3.47;86.69434;95980.46;;;;
2020/01/18 05:54:38;;;;;;;3.35;2.75;;;;;;;3.47;86.69434;95980.46;;;;
2020/01/18 05:55:39;;;;;;;3.35;2.75;;;;;;;3.47;86.69434;95980.46;;;;
2020/01/18 05:56:39;;;;;;;3.35;2.75;;;;;;;3.47;86.69434;95980.46;;;;
2020/01/18 05:57:40;;;;;;;3.35;2.75;;;;;;;3.47;86.69434;95980.46;;;;
2020/01/18 05:58:40;;;;;;;3.35;2.75;;;;;;;3.47;86.69434;95980.46;;;;
2020/01/18 05:59:41;;;;;;;5;2.95;;;;;;;3.34;86.81641;95994.37;;;;
2020/01/18 06:00:41;;;;;;;5;2.95;;;;;;;3.34;86.81641;95994.37;;;;
2020/01/18 06:01:42;;;;;;;5;2.95;;;;;;;3.34;86.81641;95994.37;;;;
2020/01/18 06:02:42;;;;;;;5;2.95;;;;;;;3.34;86.81641;95994.37;;;;
2020/01/18 06:03:43;;;;;;;5;2.95;;;;;;;3.34;86.81641;95994.37;;;;
2020/01/18 06:04:43;;;;;;;5;2.95;;;;;;;3.34;86.81641;95994.37;;;;
2020/01/18 06:05:44;;;;;;;5;2.95;;;;;;;3.34;86.81641;95994.37;;;;